sensor_id;sensor_type;location;lat;lon;timestamp;temperature;humidity
27200;DHT22;14714;48.106;11.546;2023-02-28T00:01:23;-2.30;99.90
27200;DHT22;14714;48.106;11.546;2023-02-28T00:03:50;-2.30;99.90
27200;DHT22;14714;48.106;11.546;2023-02-28T00:06:16;-2.30;99.90
27200;DHT22;14714;48.106;11.546;2023-02-28T00:08:43;-2.40;99.90
27200;DHT22;14714;48.106;11.546;2023-02-28T00:11:11;-2.30;99.90
27200;DHT22;14714;48.106;11.546;2023-02-28T00:13:42;-2.40;99.90
27200;DHT22;14714;48.106;11.546;2023-02-28T00:16:10;-2.40;99.90
27200;DHT22;14714;48.106;11.546;2023-02-28T00:18:37;-2.40;99.90
27200;DHT22;14714;48.106;11.546;2023-02-28T00:21:05;-2.40;99.90
27200;DHT22;14714;48.106;11.546;2023-02-28T00:23:31;-2.40;99.90
27200;DHT22;14714;48.106;11.546;2023-02-28T00:25:58;-2.50;99.90
27200;DHT22;14714;48.106;11.546;2023-02-28T00:28:25;-2.50;99.90
27200;DHT22;14714;48.106;11.546;2023-02-28T00:30:51;-2.50;99.90
27200;DHT22;14714;48.106;11.546;2023-02-28T00:33:18;-2.40;99.90
27200;DHT22;14714;48.106;11.546;2023-02-28T00:35:45;-2.50;99.90
27200;DHT22;14714;48.106;11.546;2023-02-28T00:38:13;-2.50;99.90
27200;DHT22;14714;48.106;11.546;2023-02-28T00:40:40;-2.50;99.90
27200;DHT22;14714;48.106;11.546;2023-02-28T00:43:06;-2.50;99.90
27200;DHT22;14714;48.106;11.546;2023-02-28T00:45:33;-2.50;99.90
27200;DHT22;14714;48.106;11.546;2023-02-28T00:48:00;-2.50;99.90
27200;DHT22;14714;48.106;11.546;2023-02-28T00:50:26;-2.60;99.90
27200;DHT22;14714;48.106;11.546;2023-02-28T00:52:53;-2.60;99.90
27200;DHT22;14714;48.106;11.546;2023-02-28T00:55:20;-2.60;99.90
27200;DHT22;14714;48.106;11.546;2023-02-28T00:57:46;-2.60;99.90
27200;DHT22;14714;48.106;11.546;2023-02-28T01:00:13;-2.50;99.90
27200;DHT22;14714;48.106;11.546;2023-02-28T01:02:40;-2.60;99.90
27200;DHT22;14714;48.106;11.546;2023-02-28T01:05:06;-2.60;99.90
27200;DHT22;14714;48.106;11.546;2023-02-28T01:07:33;-2.60;99.90
27200;DHT22;14714;48.106;11.546;2023-02-28T01:10:00;-2.60;99.90
27200;DHT22;14714;48.106;11.546;2023-02-28T01:12:26;-2.60;99.90
27200;DHT22;14714;48.106;11.546;2023-02-28T01:14:56;-2.60;99.90
27200;DHT22;14714;48.106;11.546;2023-02-28T01:17:23;-2.70;99.90
27200;DHT22;14714;48.106;11.546;2023-02-28T01:19:50;-2.70;99.90
27200;DHT22;14714;48.106;11.546;2023-02-28T01:22:19;-2.70;99.90
27200;DHT22;14714;48.106;11.546;2023-02-28T01:24:45;-2.70;99.90
27200;DHT22;14714;48.106;11.546;2023-02-28T01:27:13;-2.70;99.90
27200;DHT22;14714;48.106;11.546;2023-02-28T01:29:40;-2.70;99.90
27200;DHT22;14714;48.106;11.546;2023-02-28T01:32:07;-2.70;99.90
27200;DHT22;14714;48.106;11.546;2023-02-28T01:34:33;-2.70;99.90
27200;DHT22;14714;48.106;11.546;2023-02-28T01:37:00;-2.70;99.90
27200;DHT22;14714;48.106;11.546;2023-02-28T01:39:27;-2.70;99.90
27200;DHT22;14714;48.106;11.546;2023-02-28T01:41:54;-2.70;99.90
27200;DHT22;14714;48.106;11.546;2023-02-28T01:47:06;-2.80;99.90
27200;DHT22;14714;48.106;11.546;2023-02-28T01:49:33;-2.80;99.90
27200;DHT22;14714;48.106;11.546;2023-02-28T01:51:59;-2.80;99.90
27200;DHT22;14714;48.106;11.546;2023-02-28T01:54:27;-2.80;99.90
27200;DHT22;14714;48.106;11.546;2023-02-28T01:57:00;-2.80;99.90
27200;DHT22;14714;48.106;11.546;2023-02-28T02:00:11;-2.80;99.90
27200;DHT22;14714;48.106;11.546;2023-02-28T02:02:19;-2.80;99.90
27200;DHT22;14714;48.106;11.546;2023-02-28T02:05:04;-2.80;99.90
27200;DHT22;14714;48.106;11.546;2023-02-28T02:07:32;-2.80;99.90
27200;DHT22;14714;48.106;11.546;2023-02-28T02:10:01;-2.80;99.90
27200;DHT22;14714;48.106;11.546;2023-02-28T02:12:42;-2.90;99.90
27200;DHT22;14714;48.106;11.546;2023-02-28T02:15:16;-2.80;99.90
27200;DHT22;14714;48.106;11.546;2023-02-28T02:17:54;-2.90;99.90
27200;DHT22;14714;48.106;11.546;2023-02-28T02:23:17;-2.90;99.90
27200;DHT22;14714;48.106;11.546;2023-02-28T02:25:52;-2.90;99.90
27200;DHT22;14714;48.106;11.546;2023-02-28T02:33:28;-2.90;99.90
27200;DHT22;14714;48.106;11.546;2023-02-28T02:35:59;-3.00;99.90
27200;DHT22;14714;48.106;11.546;2023-02-28T02:38:37;-3.00;99.90
27200;DHT22;14714;48.106;11.546;2023-02-28T02:41:12;-2.90;99.90
27200;DHT22;14714;48.106;11.546;2023-02-28T02:43:43;-3.00;99.90
27200;DHT22;14714;48.106;11.546;2023-02-28T02:46:14;-3.00;99.90
27200;DHT22;14714;48.106;11.546;2023-02-28T02:48:43;-3.00;99.90
27200;DHT22;14714;48.106;11.546;2023-02-28T02:51:11;-3.00;99.90
27200;DHT22;14714;48.106;11.546;2023-02-28T02:53:57;-3.00;99.90
27200;DHT22;14714;48.106;11.546;2023-02-28T02:56:28;-3.00;99.90
27200;DHT22;14714;48.106;11.546;2023-02-28T02:58:57;-3.00;99.90
27200;DHT22;14714;48.106;11.546;2023-02-28T03:01:27;-3.10;99.90
27200;DHT22;14714;48.106;11.546;2023-02-28T03:04:09;-3.10;99.90
27200;DHT22;14714;48.106;11.546;2023-02-28T03:06:37;-3.10;99.90
27200;DHT22;14714;48.106;11.546;2023-02-28T03:09:03;-3.10;99.90
27200;DHT22;14714;48.106;11.546;2023-02-28T03:11:31;-3.10;99.90
27200;DHT22;14714;48.106;11.546;2023-02-28T03:20:05;-3.10;99.90
27200;DHT22;14714;48.106;11.546;2023-02-28T03:28:03;-3.20;99.90
27200;DHT22;14714;48.106;11.546;2023-02-28T03:33:18;-3.20;99.90
27200;DHT22;14714;48.106;11.546;2023-02-28T03:35:47;-3.20;99.90
27200;DHT22;14714;48.106;11.546;2023-02-28T03:38:23;-3.20;99.90
27200;DHT22;14714;48.106;11.546;2023-02-28T03:40:55;-3.20;99.90
27200;DHT22;14714;48.106;11.546;2023-02-28T03:43:28;-3.20;99.90
27200;DHT22;14714;48.106;11.546;2023-02-28T03:45:55;-3.20;99.90
27200;DHT22;14714;48.106;11.546;2023-02-28T03:48:27;-3.20;99.90
27200;DHT22;14714;48.106;11.546;2023-02-28T03:50:57;-3.20;99.90
27200;DHT22;14714;48.106;11.546;2023-02-28T03:55:56;-3.20;99.90
27200;DHT22;14714;48.106;11.546;2023-02-28T03:58:42;-3.20;99.90
27200;DHT22;14714;48.106;11.546;2023-02-28T04:01:33;-3.20;99.90
27200;DHT22;14714;48.106;11.546;2023-02-28T04:03:58;-3.20;99.90
27200;DHT22;14714;48.106;11.546;2023-02-28T04:06:25;-3.20;99.90
27200;DHT22;14714;48.106;11.546;2023-02-28T04:08:51;-3.20;99.90
27200;DHT22;14714;48.106;11.546;2023-02-28T04:11:23;-3.20;99.90
27200;DHT22;14714;48.106;11.546;2023-02-28T04:13:50;-3.20;99.90
27200;DHT22;14714;48.106;11.546;2023-02-28T04:16:17;-3.30;99.90
27200;DHT22;14714;48.106;11.546;2023-02-28T04:18:59;-3.20;99.90
27200;DHT22;14714;48.106;11.546;2023-02-28T04:21:29;-3.20;99.90
27200;DHT22;14714;48.106;11.546;2023-02-28T04:23:57;-3.30;99.90
27200;DHT22;14714;48.106;11.546;2023-02-28T04:26:33;-3.30;99.90
27200;DHT22;14714;48.106;11.546;2023-02-28T04:29:01;-3.20;99.90
27200;DHT22;14714;48.106;11.546;2023-02-28T04:31:28;-3.20;99.90
27200;DHT22;14714;48.106;11.546;2023-02-28T04:33:55;-3.20;99.90
27200;DHT22;14714;48.106;11.546;2023-02-28T04:36:22;-3.20;99.90
27200;DHT22;14714;48.106;11.546;2023-02-28T04:38:49;-3.20;99.90
27200;DHT22;14714;48.106;11.546;2023-02-28T04:41:16;-3.20;99.90
27200;DHT22;14714;48.106;11.546;2023-02-28T04:43:43;-3.20;99.90
27200;DHT22;14714;48.106;11.546;2023-02-28T04:46:09;-3.10;99.90
27200;DHT22;14714;48.106;11.546;2023-02-28T04:48:37;-3.10;99.90
27200;DHT22;14714;48.106;11.546;2023-02-28T04:51:05;-3.10;99.90
27200;DHT22;14714;48.106;11.546;2023-02-28T04:53:31;-3.10;99.90
27200;DHT22;14714;48.106;11.546;2023-02-28T04:55:58;-3.00;99.90
27200;DHT22;14714;48.106;11.546;2023-02-28T04:58:25;-3.00;99.90
27200;DHT22;14714;48.106;11.546;2023-02-28T05:00:52;-3.00;99.90
27200;DHT22;14714;48.106;11.546;2023-02-28T05:03:19;-3.00;99.90
27200;DHT22;14714;48.106;11.546;2023-02-28T05:05:47;-2.90;99.90
27200;DHT22;14714;48.106;11.546;2023-02-28T05:08:13;-2.90;99.90
27200;DHT22;14714;48.106;11.546;2023-02-28T05:10:40;-2.90;99.90
27200;DHT22;14714;48.106;11.546;2023-02-28T05:13:08;-2.80;99.90
27200;DHT22;14714;48.106;11.546;2023-02-28T05:15:35;-2.80;99.90
27200;DHT22;14714;48.106;11.546;2023-02-28T05:18:02;-2.80;99.90
27200;DHT22;14714;48.106;11.546;2023-02-28T05:20:29;-2.70;99.90
27200;DHT22;14714;48.106;11.546;2023-02-28T05:22:56;-2.70;99.90
27200;DHT22;14714;48.106;11.546;2023-02-28T05:25:24;-2.60;99.90
27200;DHT22;14714;48.106;11.546;2023-02-28T05:27:51;-2.60;99.90
27200;DHT22;14714;48.106;11.546;2023-02-28T05:30:17;-2.50;99.90
27200;DHT22;14714;48.106;11.546;2023-02-28T05:32:49;-2.50;99.90
27200;DHT22;14714;48.106;11.546;2023-02-28T05:35:16;-2.40;99.90
27200;DHT22;14714;48.106;11.546;2023-02-28T05:37:42;-2.40;99.90
27200;DHT22;14714;48.106;11.546;2023-02-28T05:40:09;-2.40;99.90
27200;DHT22;14714;48.106;11.546;2023-02-28T05:42:38;-2.30;99.90
27200;DHT22;14714;48.106;11.546;2023-02-28T05:45:05;-2.30;99.90
27200;DHT22;14714;48.106;11.546;2023-02-28T05:47:33;-2.20;99.90
27200;DHT22;14714;48.106;11.546;2023-02-28T05:49:59;-2.20;99.90
27200;DHT22;14714;48.106;11.546;2023-02-28T05:52:27;-2.20;99.90
27200;DHT22;14714;48.106;11.546;2023-02-28T05:54:54;-2.10;99.90
27200;DHT22;14714;48.106;11.546;2023-02-28T05:57:21;-2.10;99.90
27200;DHT22;14714;48.106;11.546;2023-02-28T05:59:50;-2.10;99.90
27200;DHT22;14714;48.106;11.546;2023-02-28T06:02:17;-2.00;99.90
27200;DHT22;14714;48.106;11.546;2023-02-28T06:04:44;-2.00;99.90
27200;DHT22;14714;48.106;11.546;2023-02-28T06:07:11;-2.00;99.90
27200;DHT22;14714;48.106;11.546;2023-02-28T06:09:37;-2.00;99.90
27200;DHT22;14714;48.106;11.546;2023-02-28T06:12:05;-1.90;99.90
27200;DHT22;14714;48.106;11.546;2023-02-28T06:14:33;-1.90;99.90
27200;DHT22;14714;48.106;11.546;2023-02-28T06:17:00;-1.90;99.90
27200;DHT22;14714;48.106;11.546;2023-02-28T06:19:28;-1.80;99.90
27200;DHT22;14714;48.106;11.546;2023-02-28T06:21:56;-1.90;99.90
27200;DHT22;14714;48.106;11.546;2023-02-28T06:24:24;-1.80;99.90
27200;DHT22;14714;48.106;11.546;2023-02-28T06:26:51;-1.80;99.90
27200;DHT22;14714;48.106;11.546;2023-02-28T06:29:17;-1.80;99.90
27200;DHT22;14714;48.106;11.546;2023-02-28T06:31:45;-1.80;99.90
27200;DHT22;14714;48.106;11.546;2023-02-28T06:34:12;-1.70;99.90
27200;DHT22;14714;48.106;11.546;2023-02-28T06:36:39;-1.70;99.90
27200;DHT22;14714;48.106;11.546;2023-02-28T06:39:06;-1.70;99.90
27200;DHT22;14714;48.106;11.546;2023-02-28T06:41:33;-1.70;99.90
27200;DHT22;14714;48.106;11.546;2023-02-28T06:44:20;-1.80;99.90
27200;DHT22;14714;48.106;11.546;2023-02-28T06:46:47;-1.80;99.90
27200;DHT22;14714;48.106;11.546;2023-02-28T06:49:14;-1.80;99.90
27200;DHT22;14714;48.106;11.546;2023-02-28T06:51:41;-1.70;99.90
27200;DHT22;14714;48.106;11.546;2023-02-28T06:54:10;-1.70;99.90
27200;DHT22;14714;48.106;11.546;2023-02-28T06:56:37;-1.70;99.90
27200;DHT22;14714;48.106;11.546;2023-02-28T06:59:03;-1.70;99.90
27200;DHT22;14714;48.106;11.546;2023-02-28T07:01:30;-1.70;99.90
27200;DHT22;14714;48.106;11.546;2023-02-28T07:03:59;-1.60;99.90
27200;DHT22;14714;48.106;11.546;2023-02-28T07:06:26;-1.60;99.90
27200;DHT22;14714;48.106;11.546;2023-02-28T07:08:53;-1.60;99.90
27200;DHT22;14714;48.106;11.546;2023-02-28T07:11:21;-1.60;99.90
27200;DHT22;14714;48.106;11.546;2023-02-28T07:13:52;-1.60;99.90
27200;DHT22;14714;48.106;11.546;2023-02-28T07:16:19;-1.60;99.90
27200;DHT22;14714;48.106;11.546;2023-02-28T07:18:46;-1.60;99.90
27200;DHT22;14714;48.106;11.546;2023-02-28T07:21:13;-1.60;99.90
27200;DHT22;14714;48.106;11.546;2023-02-28T07:23:40;-1.60;99.90
27200;DHT22;14714;48.106;11.546;2023-02-28T07:26:10;-1.60;99.90
27200;DHT22;14714;48.106;11.546;2023-02-28T07:28:37;-1.70;99.90
27200;DHT22;14714;48.106;11.546;2023-02-28T07:31:05;-1.70;99.90
27200;DHT22;14714;48.106;11.546;2023-02-28T07:33:32;-1.70;99.90
27200;DHT22;14714;48.106;11.546;2023-02-28T07:36:04;-1.60;99.90
27200;DHT22;14714;48.106;11.546;2023-02-28T07:38:33;-1.60;99.90
27200;DHT22;14714;48.106;11.546;2023-02-28T07:41:00;-1.60;99.90
27200;DHT22;14714;48.106;11.546;2023-02-28T07:43:26;-1.50;99.90
27200;DHT22;14714;48.106;11.546;2023-02-28T07:45:53;-1.50;99.90
27200;DHT22;14714;48.106;11.546;2023-02-28T07:48:19;-1.50;99.90
27200;DHT22;14714;48.106;11.546;2023-02-28T07:50:53;-1.50;99.90
27200;DHT22;14714;48.106;11.546;2023-02-28T07:53:21;-1.50;99.90
27200;DHT22;14714;48.106;11.546;2023-02-28T07:55:48;-1.50;99.90
27200;DHT22;14714;48.106;11.546;2023-02-28T07:58:15;-1.50;99.90
27200;DHT22;14714;48.106;11.546;2023-02-28T08:00:42;-1.40;99.90
27200;DHT22;14714;48.106;11.546;2023-02-28T08:03:10;-1.40;99.90
27200;DHT22;14714;48.106;11.546;2023-02-28T08:05:41;-1.30;99.90
27200;DHT22;14714;48.106;11.546;2023-02-28T08:08:07;-1.20;99.90
27200;DHT22;14714;48.106;11.546;2023-02-28T08:10:34;-1.20;99.90
27200;DHT22;14714;48.106;11.546;2023-02-28T08:13:01;-1.20;99.90
27200;DHT22;14714;48.106;11.546;2023-02-28T08:15:27;-1.10;99.90
27200;DHT22;14714;48.106;11.546;2023-02-28T08:17:54;-1.10;99.90
27200;DHT22;14714;48.106;11.546;2023-02-28T08:20:23;-1.00;99.90
27200;DHT22;14714;48.106;11.546;2023-02-28T08:22:49;-1.00;99.90
27200;DHT22;14714;48.106;11.546;2023-02-28T08:25:16;-1.00;99.90
27200;DHT22;14714;48.106;11.546;2023-02-28T08:27:43;-1.00;99.90
27200;DHT22;14714;48.106;11.546;2023-02-28T08:30:10;-0.90;99.90
27200;DHT22;14714;48.106;11.546;2023-02-28T08:32:37;-1.00;99.90
27200;DHT22;14714;48.106;11.546;2023-02-28T08:35:05;-0.90;99.90
27200;DHT22;14714;48.106;11.546;2023-02-28T08:37:32;-0.90;99.90
27200;DHT22;14714;48.106;11.546;2023-02-28T08:39:58;-0.80;99.90
27200;DHT22;14714;48.106;11.546;2023-02-28T08:42:25;-0.80;99.90
27200;DHT22;14714;48.106;11.546;2023-02-28T08:44:52;-0.80;99.90
27200;DHT22;14714;48.106;11.546;2023-02-28T08:47:18;-0.80;99.90
27200;DHT22;14714;48.106;11.546;2023-02-28T08:49:45;-0.70;99.90
27200;DHT22;14714;48.106;11.546;2023-02-28T08:52:12;-0.70;99.90
27200;DHT22;14714;48.106;11.546;2023-02-28T08:54:39;-0.60;99.90
27200;DHT22;14714;48.106;11.546;2023-02-28T08:57:06;-0.60;99.90
27200;DHT22;14714;48.106;11.546;2023-02-28T08:59:32;-0.50;99.90
27200;DHT22;14714;48.106;11.546;2023-02-28T09:01:59;-0.60;99.90
27200;DHT22;14714;48.106;11.546;2023-02-28T09:04:26;-0.50;99.90
27200;DHT22;14714;48.106;11.546;2023-02-28T09:06:52;-0.40;99.90
27200;DHT22;14714;48.106;11.546;2023-02-28T09:09:19;-0.20;99.90
27200;DHT22;14714;48.106;11.546;2023-02-28T09:11:46;-0.10;99.90
27200;DHT22;14714;48.106;11.546;2023-02-28T09:14:12;0.10;99.90
27200;DHT22;14714;48.106;11.546;2023-02-28T09:16:39;0.20;99.90
27200;DHT22;14714;48.106;11.546;2023-02-28T09:19:06;0.30;99.90
27200;DHT22;14714;48.106;11.546;2023-02-28T09:21:32;0.50;99.90
27200;DHT22;14714;48.106;11.546;2023-02-28T09:23:59;0.70;99.90
27200;DHT22;14714;48.106;11.546;2023-02-28T09:26:26;0.70;99.90
27200;DHT22;14714;48.106;11.546;2023-02-28T09:29:04;0.70;99.90
27200;DHT22;14714;48.106;11.546;2023-02-28T09:31:31;0.50;99.90
27200;DHT22;14714;48.106;11.546;2023-02-28T09:33:58;0.40;99.90
27200;DHT22;14714;48.106;11.546;2023-02-28T09:36:26;0.40;99.90
27200;DHT22;14714;48.106;11.546;2023-02-28T09:39:09;0.40;99.90
27200;DHT22;14714;48.106;11.546;2023-02-28T09:41:40;0.40;99.90
27200;DHT22;14714;48.106;11.546;2023-02-28T09:44:17;0.30;99.90
27200;DHT22;14714;48.106;11.546;2023-02-28T09:46:47;0.30;99.90
27200;DHT22;14714;48.106;11.546;2023-02-28T09:49:16;0.30;99.90
27200;DHT22;14714;48.106;11.546;2023-02-28T09:51:45;0.20;99.90
27200;DHT22;14714;48.106;11.546;2023-02-28T09:54:14;0.30;99.90
27200;DHT22;14714;48.106;11.546;2023-02-28T09:56:47;0.30;99.90
27200;DHT22;14714;48.106;11.546;2023-02-28T09:59:18;0.40;99.90
27200;DHT22;14714;48.106;11.546;2023-02-28T10:06:44;0.80;99.90
27200;DHT22;14714;48.106;11.546;2023-02-28T10:09:12;1.00;99.90
27200;DHT22;14714;48.106;11.546;2023-02-28T10:11:39;1.20;99.90
27200;DHT22;14714;48.106;11.546;2023-02-28T10:14:10;1.40;99.90
27200;DHT22;14714;48.106;11.546;2023-02-28T10:16:40;1.50;99.90
27200;DHT22;14714;48.106;11.546;2023-02-28T10:19:15;1.40;99.90
27200;DHT22;14714;48.106;11.546;2023-02-28T10:21:46;1.40;99.90
27200;DHT22;14714;48.106;11.546;2023-02-28T10:24:21;1.40;99.90
27200;DHT22;14714;48.106;11.546;2023-02-28T10:26:49;1.40;99.90
27200;DHT22;14714;48.106;11.546;2023-02-28T10:29:19;1.40;99.90
27200;DHT22;14714;48.106;11.546;2023-02-28T10:31:45;1.40;99.90
27200;DHT22;14714;48.106;11.546;2023-02-28T10:34:12;1.40;99.90
27200;DHT22;14714;48.106;11.546;2023-02-28T10:36:39;1.40;99.90
27200;DHT22;14714;48.106;11.546;2023-02-28T10:41:51;1.30;99.90
27200;DHT22;14714;48.106;11.546;2023-02-28T10:44:20;1.30;99.90
27200;DHT22;14714;48.106;11.546;2023-02-28T10:46:48;1.50;99.90
27200;DHT22;14714;48.106;11.546;2023-02-28T10:49:25;1.70;99.90
27200;DHT22;14714;48.106;11.546;2023-02-28T10:51:57;1.90;99.90
27200;DHT22;14714;48.106;11.546;2023-02-28T10:54:34;2.00;99.90
27200;DHT22;14714;48.106;11.546;2023-02-28T10:57:06;2.30;99.90
27200;DHT22;14714;48.106;11.546;2023-02-28T10:59:33;2.30;99.90
27200;DHT22;14714;48.106;11.546;2023-02-28T11:02:00;2.40;99.90
27200;DHT22;14714;48.106;11.546;2023-02-28T11:06:59;2.80;99.90
27200;DHT22;14714;48.106;11.546;2023-02-28T11:09:33;3.10;99.90
27200;DHT22;14714;48.106;11.546;2023-02-28T11:12:02;3.20;99.90
27200;DHT22;14714;48.106;11.546;2023-02-28T11:14:31;3.30;99.90
27200;DHT22;14714;48.106;11.546;2023-02-28T11:17:20;3.30;99.90
27200;DHT22;14714;48.106;11.546;2023-02-28T11:19:47;3.50;99.90
27200;DHT22;14714;48.106;11.546;2023-02-28T11:22:19;3.60;99.90
27200;DHT22;14714;48.106;11.546;2023-02-28T11:24:47;3.60;99.90
27200;DHT22;14714;48.106;11.546;2023-02-28T11:27:26;3.50;99.90
27200;DHT22;14714;48.106;11.546;2023-02-28T11:30:12;3.40;99.90
27200;DHT22;14714;48.106;11.546;2023-02-28T11:32:49;3.20;99.90
27200;DHT22;14714;48.106;11.546;2023-02-28T11:37:56;3.20;99.90
27200;DHT22;14714;48.106;11.546;2023-02-28T11:40:30;3.30;99.90
27200;DHT22;14714;48.106;11.546;2023-02-28T11:45:33;3.60;99.90
27200;DHT22;14714;48.106;11.546;2023-02-28T11:55:58;4.40;99.90
27200;DHT22;14714;48.106;11.546;2023-02-28T11:58:37;4.80;99.90
27200;DHT22;14714;48.106;11.546;2023-02-28T12:01:12;5.20;99.90
27200;DHT22;14714;48.106;11.546;2023-02-28T12:07:29;5.40;98.40
27200;DHT22;14714;48.106;11.546;2023-02-28T12:09:42;5.20;98.60
27200;DHT22;14714;48.106;11.546;2023-02-28T12:12:21;5.30;98.50
27200;DHT22;14714;48.106;11.546;2023-02-28T12:14:57;5.30;98.30
27200;DHT22;14714;48.106;11.546;2023-02-28T12:22:31;5.50;97.30
27200;DHT22;14714;48.106;11.546;2023-02-28T12:27:44;5.30;97.20
27200;DHT22;14714;48.106;11.546;2023-02-28T12:30:13;5.30;96.80
27200;DHT22;14714;48.106;11.546;2023-02-28T12:32:43;5.40;97.20
27200;DHT22;14714;48.106;11.546;2023-02-28T12:35:12;5.50;96.20
27200;DHT22;14714;48.106;11.546;2023-02-28T12:37:47;5.60;95.50
27200;DHT22;14714;48.106;11.546;2023-02-28T12:40:18;5.60;95.90
27200;DHT22;14714;48.106;11.546;2023-02-28T12:42:46;5.50;95.60
27200;DHT22;14714;48.106;11.546;2023-02-28T12:45:17;5.40;96.10
27200;DHT22;14714;48.106;11.546;2023-02-28T12:47:45;5.10;95.90
27200;DHT22;14714;48.106;11.546;2023-02-28T12:50:14;4.80;95.30
27200;DHT22;14714;48.106;11.546;2023-02-28T12:52:47;4.50;95.80
27200;DHT22;14714;48.106;11.546;2023-02-28T12:55:21;4.30;97.10
27200;DHT22;14714;48.106;11.546;2023-02-28T12:57:58;4.20;96.90
27200;DHT22;14714;48.106;11.546;2023-02-28T13:00:38;4.10;97.40
27200;DHT22;14714;48.106;11.546;2023-02-28T13:10:53;4.20;98.80
27200;DHT22;14714;48.106;11.546;2023-02-28T13:13:25;4.20;98.20
27200;DHT22;14714;48.106;11.546;2023-02-28T13:16:08;4.30;98.80
27200;DHT22;14714;48.106;11.546;2023-02-28T13:18:45;4.40;97.50
27200;DHT22;14714;48.106;11.546;2023-02-28T13:21:22;4.50;97.70
27200;DHT22;14714;48.106;11.546;2023-02-28T13:28:58;4.90;96.40
27200;DHT22;14714;48.106;11.546;2023-02-28T13:31:25;5.10;96.10
27200;DHT22;14714;48.106;11.546;2023-02-28T13:36:27;5.10;95.60
27200;DHT22;14714;48.106;11.546;2023-02-28T13:38:57;5.10;96.50
27200;DHT22;14714;48.106;11.546;2023-02-28T13:44:02;4.80;96.70
27200;DHT22;14714;48.106;11.546;2023-02-28T13:46:30;4.70;96.90
27200;DHT22;14714;48.106;11.546;2023-02-28T13:49:17;4.60;96.70
27200;DHT22;14714;48.106;11.546;2023-02-28T13:51:47;4.50;96.80
27200;DHT22;14714;48.106;11.546;2023-02-28T13:54:24;4.30;96.40
27200;DHT22;14714;48.106;11.546;2023-02-28T13:59:26;4.10;97.80
27200;DHT22;14714;48.106;11.546;2023-02-28T14:06:57;4.40;97.70
27200;DHT22;14714;48.106;11.546;2023-02-28T14:09:25;4.60;97.60
27200;DHT22;14714;48.106;11.546;2023-02-28T14:11:52;4.70;96.90
27200;DHT22;14714;48.106;11.546;2023-02-28T14:17:02;4.80;97.60
27200;DHT22;14714;48.106;11.546;2023-02-28T14:19:30;4.80;97.20
27200;DHT22;14714;48.106;11.546;2023-02-28T14:37:45;3.90;97.60
27200;DHT22;14714;48.106;11.546;2023-02-28T14:40:14;3.80;97.40
27200;DHT22;14714;48.106;11.546;2023-02-28T14:42:46;3.70;97.80
27200;DHT22;14714;48.106;11.546;2023-02-28T14:45:19;3.70;98.80
27200;DHT22;14714;48.106;11.546;2023-02-28T14:47:48;3.80;98.80
27200;DHT22;14714;48.106;11.546;2023-02-28T14:50:22;3.80;98.20
27200;DHT22;14714;48.106;11.546;2023-02-28T14:52:53;3.80;98.70
27200;DHT22;14714;48.106;11.546;2023-02-28T14:55:26;3.70;98.50
27200;DHT22;14714;48.106;11.546;2023-02-28T14:57:53;3.70;98.50
27200;DHT22;14714;48.106;11.546;2023-02-28T15:00:25;3.60;98.50
27200;DHT22;14714;48.106;11.546;2023-02-28T15:02:52;3.50;98.40
27200;DHT22;14714;48.106;11.546;2023-02-28T15:08:14;3.40;98.50
27200;DHT22;14714;48.106;11.546;2023-02-28T15:11:03;3.30;98.40
27200;DHT22;14714;48.106;11.546;2023-02-28T15:13:40;3.20;98.70
27200;DHT22;14714;48.106;11.546;2023-02-28T15:16:10;3.20;99.40
27200;DHT22;14714;48.106;11.546;2023-02-28T15:21:06;3.20;99.60
27200;DHT22;14714;48.106;11.546;2023-02-28T15:23:34;3.20;99.30
27200;DHT22;14714;48.106;11.546;2023-02-28T15:26:02;3.20;99.30
27200;DHT22;14714;48.106;11.546;2023-02-28T15:28:29;3.20;99.40
27200;DHT22;14714;48.106;11.546;2023-02-28T15:30:57;3.10;99.30
27200;DHT22;14714;48.106;11.546;2023-02-28T15:33:32;3.10;99.30
27200;DHT22;14714;48.106;11.546;2023-02-28T15:36:13;3.10;99.30
27200;DHT22;14714;48.106;11.546;2023-02-28T15:38:40;3.00;99.50
27200;DHT22;14714;48.106;11.546;2023-02-28T15:41:20;3.00;99.40
27200;DHT22;14714;48.106;11.546;2023-02-28T15:43:47;3.00;99.40
27200;DHT22;14714;48.106;11.546;2023-02-28T15:46:14;3.00;99.50
27200;DHT22;14714;48.106;11.546;2023-02-28T15:48:43;3.00;99.70
27200;DHT22;14714;48.106;11.546;2023-02-28T15:51:22;3.00;99.90
27200;DHT22;14714;48.106;11.546;2023-02-28T15:53:54;2.90;99.90
27200;DHT22;14714;48.106;11.546;2023-02-28T15:58:49;2.90;99.90
27200;DHT22;14714;48.106;11.546;2023-02-28T16:01:17;2.90;99.90
27200;DHT22;14714;48.106;11.546;2023-02-28T16:03:47;2.90;99.90
27200;DHT22;14714;48.106;11.546;2023-02-28T16:09:00;2.80;99.90
27200;DHT22;14714;48.106;11.546;2023-02-28T16:11:26;2.80;99.90
27200;DHT22;14714;48.106;11.546;2023-02-28T16:13:54;2.70;99.90
27200;DHT22;14714;48.106;11.546;2023-02-28T16:16:22;2.70;99.90
27200;DHT22;14714;48.106;11.546;2023-02-28T16:18:50;2.70;99.90
27200;DHT22;14714;48.106;11.546;2023-02-28T16:21:17;2.70;99.90
27200;DHT22;14714;48.106;11.546;2023-02-28T16:23:43;2.70;99.90
27200;DHT22;14714;48.106;11.546;2023-02-28T16:26:21;2.60;99.90
27200;DHT22;14714;48.106;11.546;2023-02-28T16:28:49;2.60;99.90
27200;DHT22;14714;48.106;11.546;2023-02-28T16:31:16;2.60;99.90
27200;DHT22;14714;48.106;11.546;2023-02-28T16:33:43;2.60;99.90
27200;DHT22;14714;48.106;11.546;2023-02-28T16:36:19;2.60;99.90
27200;DHT22;14714;48.106;11.546;2023-02-28T16:38:46;2.50;99.90
27200;DHT22;14714;48.106;11.546;2023-02-28T16:41:14;2.50;99.90
27200;DHT22;14714;48.106;11.546;2023-02-28T16:43:45;2.50;99.90
27200;DHT22;14714;48.106;11.546;2023-02-28T16:46:13;2.50;99.90
27200;DHT22;14714;48.106;11.546;2023-02-28T16:48:40;2.50;99.90
27200;DHT22;14714;48.106;11.546;2023-02-28T16:51:15;2.50;99.90
27200;DHT22;14714;48.106;11.546;2023-02-28T16:53:42;2.50;99.90
27200;DHT22;14714;48.106;11.546;2023-02-28T16:56:18;2.40;99.90
27200;DHT22;14714;48.106;11.546;2023-02-28T16:58:45;2.40;99.90
27200;DHT22;14714;48.106;11.546;2023-02-28T17:01:13;2.40;99.90
27200;DHT22;14714;48.106;11.546;2023-02-28T17:03:40;2.40;99.90
27200;DHT22;14714;48.106;11.546;2023-02-28T17:06:23;2.40;99.90
27200;DHT22;14714;48.106;11.546;2023-02-28T17:08:50;2.40;99.90
27200;DHT22;14714;48.106;11.546;2023-02-28T17:11:17;2.30;99.90
27200;DHT22;14714;48.106;11.546;2023-02-28T17:13:44;2.30;99.90
27200;DHT22;14714;48.106;11.546;2023-02-28T17:16:33;2.30;99.90
27200;DHT22;14714;48.106;11.546;2023-02-28T17:19:03;2.20;99.90
27200;DHT22;14714;48.106;11.546;2023-02-28T17:21:30;2.10;99.90
27200;DHT22;14714;48.106;11.546;2023-02-28T17:23:57;2.10;99.90
27200;DHT22;14714;48.106;11.546;2023-02-28T17:26:24;2.10;99.90
27200;DHT22;14714;48.106;11.546;2023-02-28T17:28:51;2.00;99.90
27200;DHT22;14714;48.106;11.546;2023-02-28T17:31:18;2.00;99.90
27200;DHT22;14714;48.106;11.546;2023-02-28T17:33:45;1.90;99.90